createdAt,value
2019-04-19T00:00:34.804Z,30.50
2019-04-19T00:03:06.444Z,30.20
2019-04-19T00:06:05.057Z,30.90
2019-04-19T00:08:49.194Z,30.00
2019-04-19T00:11:17.680Z,30.00
2019-04-19T00:13:36.724Z,30.00
2019-04-19T00:16:06.864Z,30.10
2019-04-19T00:18:43.830Z,30.00
2019-04-19T00:21:22.951Z,30.00
2019-04-19T00:23:43.421Z,29.80
2019-04-19T00:26:10.778Z,30.20
2019-04-19T00:28:47.712Z,30.90
2019-04-19T00:31:25.221Z,30.20
2019-04-19T00:33:47.821Z,29.50
2019-04-19T00:36:16.449Z,30.00
2019-04-19T00:38:58.199Z,29.40
2019-04-19T00:41:57.344Z,29.60
2019-04-19T00:44:40.285Z,29.90
2019-04-19T00:47:06.576Z,29.90
2019-04-19T00:49:31.985Z,29.80
2019-04-19T00:52:05.474Z,29.40
2019-04-19T00:54:34.382Z,31.00
2019-04-19T00:57:03.035Z,31.40
2019-04-19T00:59:35.639Z,31.10
2019-04-19T01:02:07.517Z,30.60
2019-04-19T01:04:33.133Z,30.00
2019-04-19T01:07:05.329Z,30.30
2019-04-19T01:09:46.663Z,30.20
2019-04-19T01:12:17.711Z,31.10
2019-04-19T01:14:47.037Z,31.50
2019-04-19T01:17:22.828Z,31.30
2019-04-19T01:19:45.477Z,31.90
2019-04-19T01:22:17.660Z,32.40
2019-04-19T01:24:45.255Z,32.70
2019-04-19T01:27:19.406Z,32.10
2019-04-19T01:29:48.866Z,32.50
2019-04-19T01:32:19.433Z,32.80
2019-04-19T01:34:54.389Z,34.90
2019-04-19T01:37:22.439Z,34.20
2019-04-19T01:40:05.856Z,33.70
2019-04-19T01:42:39.776Z,34.40
2019-04-19T01:45:21.210Z,35.30
2019-04-19T01:47:59.592Z,35.10
2019-04-19T01:50:38.442Z,34.70
2019-04-19T01:53:14.901Z,35.50
2019-04-19T01:55:29.709Z,34.80
2019-04-19T01:58:03.536Z,33.80
2019-04-19T02:00:35.749Z,34.60
2019-04-19T02:03:02.403Z,34.50
2019-04-19T02:05:30.142Z,34.20
2019-04-19T02:08:04.671Z,34.00
2019-04-19T02:11:25.122Z,34.20
2019-04-19T02:13:56.787Z,33.90
2019-04-19T02:16:19.701Z,34.40
2019-04-19T02:18:45.299Z,34.20
2019-04-19T02:21:24.695Z,34.60
2019-04-19T02:23:51.237Z,33.20
2019-04-19T02:26:21.205Z,34.20
2019-04-19T02:28:49.334Z,33.40
2019-04-19T02:31:47.539Z,34.50
2019-04-19T02:34:21.605Z,33.50
2019-04-19T02:37:00.915Z,33.30
2019-04-19T02:39:24.150Z,33.70
2019-04-19T02:44:17.527Z,36.20
2019-04-19T03:08:50.370Z,56.40
2019-04-19T03:11:37.626Z,53.50
2019-04-19T03:14:03.192Z,52.40
2019-04-19T03:16:45.490Z,53.50
2019-04-19T03:19:07.397Z,53.60
2019-04-19T03:21:42.993Z,55.50
2019-04-19T03:24:12.324Z,57.20
2019-04-19T03:26:41.593Z,57.40
2019-04-19T03:29:08.802Z,60.60
2019-04-19T03:32:06.520Z,61.90
2019-04-19T03:34:31.221Z,63.00
2019-04-19T03:36:47.843Z,63.30
2019-04-19T03:39:23.151Z,66.10
2019-04-19T03:42:05.012Z,66.50
2019-04-19T03:44:37.364Z,65.50
2019-04-19T03:47:10.172Z,64.20
2019-04-19T03:49:38.693Z,63.80
2019-04-19T03:52:15.626Z,63.20
2019-04-19T03:54:39.239Z,63.70
2019-04-19T03:57:11.604Z,61.80
2019-04-19T03:59:29.006Z,64.30
2019-04-19T04:02:01.047Z,64.30
2019-04-19T04:04:33.260Z,64.40
2019-04-19T04:07:09.051Z,64.30
2019-04-19T04:09:43.627Z,64.30
2019-04-19T04:12:38.183Z,65.30
2019-04-19T04:15:17.425Z,65.00
2019-04-19T04:17:39.528Z,66.10
2019-04-19T04:20:09.501Z,68.20
2019-04-19T04:22:44.071Z,65.70
2019-04-19T04:25:20.328Z,67.10
2019-04-19T04:27:56.782Z,64.70
2019-04-19T04:30:25.813Z,62.70
2019-04-19T04:32:56.973Z,63.10
2019-04-19T04:35:31.753Z,61.40
2019-04-19T04:38:00.465Z,60.70
2019-04-19T04:40:21.113Z,59.90
2019-04-19T04:43:04.100Z,57.40
2019-04-19T04:45:49.528Z,57.90
2019-04-19T04:48:25.053Z,57.80
2019-04-19T04:51:04.412Z,57.30
2019-04-19T04:53:24.332Z,58.20
2019-04-19T04:56:03.855Z,56.20
2019-04-19T04:58:34.486Z,52.70
2019-04-19T05:01:07.897Z,50.30
2019-04-19T05:03:51.173Z,48.90
2019-04-19T05:06:21.621Z,45.00
2019-04-19T05:08:50.142Z,43.80
2019-04-19T05:11:24.376Z,42.80
2019-04-19T05:13:55.853Z,42.10
2019-04-19T05:16:34.882Z,42.10
2019-04-19T05:18:59.458Z,41.60
2019-04-19T05:21:29.894Z,41.00
2019-04-19T05:24:04.969Z,38.10
2019-04-19T05:26:38.939Z,37.10
2019-04-19T05:29:02.360Z,35.80
2019-04-19T05:31:28.681Z,32.40
2019-04-19T05:34:12.323Z,30.10
2019-04-19T05:36:45.281Z,27.80
2019-04-19T05:39:26.563Z,26.20
2019-04-19T05:42:13.067Z,25.10
2019-04-19T05:45:15.738Z,24.90
2019-04-19T05:47:28.316Z,24.30
2019-04-19T05:50:00.905Z,23.40
2019-04-19T05:52:35.932Z,23.40
2019-04-19T05:54:45.153Z,21.70
2019-04-19T05:57:37.197Z,21.60
2019-04-19T05:59:54.796Z,19.50
2019-04-19T06:02:26.319Z,17.70
